Time;durP1;ratioP1;P1;durP2;ratioP2;P2;SDS_P1;SDS_P2;PMS_P1;PMS_P2;Temp;Humidity;BMP_temperature;BMP_pressure;BME280_temperature;BME280_humidity;BME280_pressure;Samples;Min_cycle;Max_cycle;Signal;HPM_P1;HPM_P2
2024/01/17 00:02:11;;;;;;;12.13;7.40;;;-1.10;85.30;;;;;;964460;148;27274;-82
2024/01/17 00:04:37;;;;;;;11.50;8.40;;;-1.10;85.10;;;;;;964136;148;27863;-82
2024/01/17 00:07:04;;;;;;;13.53;8.00;;;-1.10;85.20;;;;;;964173;148;27336;-82
2024/01/17 00:09:31;;;;;;;10.43;7.60;;;-1.10;85.10;;;;;;963865;148;27369;-81
2024/01/17 00:11:58;;;;;;;9.63;7.13;;;-1.00;85.20;;;;;;963898;147;27273;-82
2024/01/17 00:14:24;;;;;;;10.57;7.50;;;-1.00;85.20;;;;;;964161;148;27331;-82
2024/01/17 00:16:50;;;;;;;11.10;7.20;;;-1.00;85.00;;;;;;963938;148;27348;-82
2024/01/17 00:19:17;;;;;;;9.30;7.10;;;-1.00;85.00;;;;;;963896;147;27434;-83
2024/01/17 00:21:44;;;;;;;10.40;7.43;;;-1.00;85.00;;;;;;964068;146;27318;-83
2024/01/17 00:24:10;;;;;;;10.17;6.63;;;-1.00;85.00;;;;;;964507;148;27250;-82
2024/01/17 00:26:37;;;;;;;10.77;7.03;;;-1.00;85.00;;;;;;964280;148;27742;-82
2024/01/17 00:29:03;;;;;;;10.33;7.07;;;-1.00;85.00;;;;;;964080;147;27442;-81
2024/01/17 00:31:30;;;;;;;9.97;6.47;;;-1.00;85.00;;;;;;964586;147;27363;-81
2024/01/17 00:33:57;;;;;;;8.63;6.90;;;-1.00;85.20;;;;;;964442;145;27265;-82
2024/01/17 00:36:23;;;;;;;10.70;6.87;;;-1.00;85.10;;;;;;964278;146;27322;-82
2024/01/17 00:38:50;;;;;;;7.77;5.70;;;-1.00;85.20;;;;;;963549;146;27418;-81
2024/01/17 00:41:16;;;;;;;8.80;6.30;;;-1.00;85.20;;;;;;963884;148;27282;-81
2024/01/17 00:43:43;;;;;;;10.50;6.80;;;-1.00;85.20;;;;;;963669;145;27397;-81
2024/01/17 00:46:09;;;;;;;8.00;6.13;;;-1.00;85.30;;;;;;964438;148;27363;-81
2024/01/17 00:48:36;;;;;;;9.97;6.73;;;-1.00;85.30;;;;;;964119;148;27290;-81
2024/01/17 00:51:03;;;;;;;10.63;6.80;;;-1.00;85.40;;;;;;964258;147;27342;-82
2024/01/17 00:53:29;;;;;;;10.53;6.47;;;-1.00;85.50;;;;;;964276;148;27417;-82
2024/01/17 00:55:56;;;;;;;7.80;6.23;;;-1.00;85.70;;;;;;964020;148;27313;-82
2024/01/17 00:58:22;;;;;;;9.57;6.40;;;-0.90;85.70;;;;;;964130;148;27295;-82
2024/01/17 01:00:49;;;;;;;9.17;6.50;;;-0.90;85.80;;;;;;963923;148;27437;-82
2024/01/17 01:03:16;;;;;;;8.97;6.30;;;-0.90;85.80;;;;;;964311;148;27416;-82
2024/01/17 01:05:42;;;;;;;6.63;5.53;;;-0.90;85.80;;;;;;964329;148;27310;-82
2024/01/17 01:08:09;;;;;;;7.77;5.60;;;-0.90;85.80;;;;;;964362;147;27321;-82
2024/01/17 01:10:35;;;;;;;8.07;5.50;;;-0.90;85.90;;;;;;964244;146;27441;-82
2024/01/17 01:13:03;;;;;;;9.27;6.10;;;-0.80;85.80;;;;;;964627;148;27347;-82
2024/01/17 01:15:29;;;;;;;6.77;5.80;;;-0.80;85.80;;;;;;964152;148;27310;-82
2024/01/17 01:17:55;;;;;;;8.20;5.70;;;-0.80;85.80;;;;;;963656;148;27274;-82
2024/01/17 01:20:22;;;;;;;10.47;6.43;;;-0.80;85.70;;;;;;964682;146;27344;-81
2024/01/17 01:22:48;;;;;;;6.13;5.50;;;-0.80;85.70;;;;;;964374;148;27345;-81
2024/01/17 01:25:15;;;;;;;10.93;6.30;;;-0.80;85.50;;;;;;963834;148;27404;-81
2024/01/17 01:27:41;;;;;;;8.50;5.73;;;-0.80;85.40;;;;;;964147;147;27306;-81
2024/01/17 01:30:08;;;;;;;10.63;6.33;;;-0.80;85.30;;;;;;964440;148;27337;-81
2024/01/17 01:32:35;;;;;;;9.13;6.43;;;-0.80;85.30;;;;;;964292;147;27460;-81
2024/01/17 01:35:01;;;;;;;8.23;6.20;;;-0.80;85.20;;;;;;964417;146;27286;-81
2024/01/17 01:37:28;;;;;;;8.27;5.83;;;-0.90;85.00;;;;;;964234;148;27271;-81
2024/01/17 01:39:54;;;;;;;11.07;6.10;;;-0.90;85.10;;;;;;964532;148;27273;-81
2024/01/17 01:42:21;;;;;;;7.67;5.50;;;-0.90;85.00;;;;;;964507;145;27346;-80
2024/01/17 01:44:48;;;;;;;8.87;5.47;;;-0.90;85.00;;;;;;963356;147;27434;-80
2024/01/17 01:47:14;;;;;;;7.73;5.97;;;-0.90;84.90;;;;;;964060;148;27371;-81
2024/01/17 01:49:41;;;;;;;9.23;5.97;;;-1.00;84.90;;;;;;963889;148;27262;-81
2024/01/17 01:52:07;;;;;;;7.87;6.20;;;-1.00;84.90;;;;;;964496;146;27418;-81
2024/01/17 01:54:34;;;;;;;7.50;6.03;;;-1.00;85.50;;;;;;963962;147;27547;-80
2024/01/17 01:57:01;;;;;;;8.90;6.40;;;-1.10;84.80;;;;;;964151;148;27387;-81
2024/01/17 01:59:27;;;;;;;11.17;6.47;;;-1.10;84.80;;;;;;964312;147;27246;-81
2024/01/17 02:01:54;;;;;;;9.90;6.10;;;-1.10;84.90;;;;;;964372;148;27329;-81
2024/01/17 02:04:20;;;;;;;10.80;6.57;;;-1.10;84.90;;;;;;964108;146;27341;-81
2024/01/17 02:06:47;;;;;;;10.30;6.43;;;-1.20;84.90;;;;;;963954;147;27359;-81
2024/01/17 02:09:13;;;;;;;9.83;6.30;;;-1.20;85.00;;;;;;963849;148;27441;-81
2024/01/17 02:11:40;;;;;;;7.83;6.03;;;-1.20;85.10;;;;;;963358;148;27418;-81
2024/01/17 02:14:07;;;;;;;8.77;5.70;;;-1.30;85.00;;;;;;964484;148;27930;-81
2024/01/17 02:16:33;;;;;;;9.70;5.67;;;-1.30;85.20;;;;;;963665;147;27371;-81
2024/01/17 02:19:00;;;;;;;7.20;5.87;;;-1.30;85.20;;;;;;964845;146;27301;-81
2024/01/17 02:21:26;;;;;;;8.30;6.00;;;-1.30;85.30;;;;;;964704;146;27334;-81
2024/01/17 02:23:53;;;;;;;9.03;6.23;;;-1.30;85.30;;;;;;964458;146;27413;-81
2024/01/17 02:26:20;;;;;;;10.03;5.30;;;-1.30;85.30;;;;;;964244;148;27450;-81
2024/01/17 02:28:46;;;;;;;8.10;5.70;;;-1.40;85.30;;;;;;964264;148;27303;-81
2024/01/17 02:31:13;;;;;;;8.53;5.60;;;-1.40;85.10;;;;;;964619;148;27347;-81
2024/01/17 02:33:39;;;;;;;9.50;6.27;;;-1.40;85.30;;;;;;964533;147;27415;-81
2024/01/17 02:36:06;;;;;;;7.53;5.73;;;-1.40;85.40;;;;;;964363;147;27337;-82
2024/01/17 02:38:33;;;;;;;7.67;5.87;;;-1.40;85.40;;;;;;964573;146;27351;-81
2024/01/17 02:40:59;;;;;;;7.23;5.30;;;-1.50;85.30;;;;;;964231;148;27399;-81
2024/01/17 02:43:27;;;;;;;10.23;5.93;;;-1.50;85.40;;;;;;964456;145;27290;-81
2024/01/17 02:45:52;;;;;;;8.53;5.50;;;-1.50;85.40;;;;;;963301;148;27329;-81
2024/01/17 02:48:19;;;;;;;11.87;5.67;;;-1.60;85.40;;;;;;964276;148;27354;-82
2024/01/17 02:50:45;;;;;;;7.50;5.93;;;-1.60;85.50;;;;;;964164;147;27344;-82
2024/01/17 02:53:12;;;;;;;7.30;5.13;;;-1.60;85.60;;;;;;964698;148;27279;-81
2024/01/17 02:55:39;;;;;;;8.00;5.80;;;-1.70;85.60;;;;;;964407;146;27353;-80
2024/01/17 02:58:05;;;;;;;9.73;5.97;;;-1.60;85.90;;;;;;964695;145;27353;-81
2024/01/17 03:00:33;;;;;;;7.70;5.30;;;-1.70;86.10;;;;;;964472;146;27373;-81
2024/01/17 03:02:58;;;;;;;8.93;5.37;;;-1.70;86.20;;;;;;964003;148;27267;-82
2024/01/17 03:05:25;;;;;;;7.07;5.83;;;-1.70;86.40;;;;;;964144;148;27426;-81
2024/01/17 03:07:52;;;;;;;8.23;5.93;;;-1.60;86.50;;;;;;964299;147;27434;-84
2024/01/17 03:10:18;;;;;;;9.37;5.70;;;-1.60;86.60;;;;;;964398;146;27342;-83
2024/01/17 03:12:45;;;;;;;9.93;6.63;;;-1.60;86.70;;;;;;964192;148;27310;-83
2024/01/17 03:15:12;;;;;;;8.20;5.77;;;-1.60;86.70;;;;;;964054;148;27398;-83
2024/01/17 03:17:38;;;;;;;11.03;6.63;;;-1.60;86.50;;;;;;963824;148;27349;-83
2024/01/17 03:20:05;;;;;;;9.93;6.40;;;-1.60;86.50;;;;;;964426;148;27421;-83
2024/01/17 03:22:31;;;;;;;10.70;6.77;;;-1.60;86.40;;;;;;964107;146;27278;-83
2024/01/17 03:24:58;;;;;;;7.93;5.50;;;-1.60;86.40;;;;;;964323;147;27254;-83
2024/01/17 03:27:24;;;;;;;7.30;5.80;;;-1.60;86.40;;;;;;964366;148;27349;-83
2024/01/17 03:29:51;;;;;;;8.23;6.17;;;-1.60;86.40;;;;;;964079;145;27411;-83
2024/01/17 03:32:17;;;;;;;9.67;5.80;;;-1.60;86.40;;;;;;964442;148;27293;-84
2024/01/17 03:34:44;;;;;;;9.17;6.23;;;-1.60;86.40;;;;;;964103;148;27332;-83
2024/01/17 03:37:11;;;;;;;10.37;6.00;;;-1.70;86.40;;;;;;964504;148;27300;-83
2024/01/17 03:39:37;;;;;;;8.67;6.00;;;-1.70;86.40;;;;;;964243;148;27422;-83
2024/01/17 03:42:04;;;;;;;8.13;5.87;;;-1.70;86.50;;;;;;964377;148;27293;-84
2024/01/17 03:44:30;;;;;;;10.53;6.10;;;-1.70;86.60;;;;;;963952;148;27291;-83
2024/01/17 03:46:57;;;;;;;9.10;6.17;;;-1.70;86.60;;;;;;964368;148;27302;-83
2024/01/17 03:49:24;;;;;;;11.27;6.67;;;-1.70;86.70;;;;;;964371;148;27349;-83
2024/01/17 03:51:51;;;;;;;9.43;6.13;;;-1.60;86.80;;;;;;964430;148;27342;-84
2024/01/17 03:54:18;;;;;;;8.20;6.03;;;-1.70;86.90;;;;;;964423;148;27830;-82
2024/01/17 03:56:43;;;;;;;10.40;5.63;;;-1.60;87.10;;;;;;963812;148;27289;-83
2024/01/17 03:59:10;;;;;;;7.10;5.43;;;-1.60;87.00;;;;;;964564;148;27357;-83
2024/01/17 04:01:43;;;;;;;9.53;6.23;;;-1.60;87.00;;;;;;964019;148;27341;-84
2024/01/17 04:04:09;;;;;;;7.17;5.20;;;-1.60;86.90;;;;;;964119;148;27403;-83
2024/01/17 04:06:35;;;;;;;14.83;6.33;;;-1.60;86.80;;;;;;964537;148;27403;-83
2024/01/17 04:09:02;;;;;;;9.40;6.07;;;-1.60;86.70;;;;;;964494;146;27369;-83
2024/01/17 04:11:29;;;;;;;7.07;6.00;;;-1.60;86.60;;;;;;964250;148;27909;-83
2024/01/17 04:13:55;;;;;;;7.93;6.07;;;-1.60;86.50;;;;;;964369;145;27396;-83
2024/01/17 04:16:22;;;;;;;7.50;5.70;;;-1.70;86.50;;;;;;964113;148;27390;-83
2024/01/17 04:18:48;;;;;;;9.17;5.70;;;-1.70;86.50;;;;;;964638;146;27442;-83
2024/01/17 04:21:20;;;;;;;11.07;6.87;;;-1.70;86.40;;;;;;964230;146;27767;-82
2024/01/17 04:23:44;;;;;;;7.80;5.63;;;-1.70;86.60;;;;;;963451;148;27363;-83
2024/01/17 04:26:21;;;;;;;8.80;6.17;;;-1.70;86.50;;;;;;964538;148;27291;-82
2024/01/17 04:28:46;;;;;;;8.57;6.43;;;-1.70;86.70;;;;;;963957;148;27334;-82
2024/01/17 04:31:13;;;;;;;10.27;6.70;;;-1.70;86.70;;;;;;964340;147;27355;-82
2024/01/17 04:33:39;;;;;;;8.80;5.90;;;-1.70;86.70;;;;;;963587;148;27290;-83
2024/01/17 04:36:06;;;;;;;9.60;6.40;;;-1.70;87.00;;;;;;964510;147;27352;-82
2024/01/17 04:38:33;;;;;;;8.97;5.97;;;-1.70;86.90;;;;;;964528;148;27282;-83
2024/01/17 04:40:59;;;;;;;7.70;6.17;;;-1.80;87.00;;;;;;964343;147;27817;-83
2024/01/17 04:43:26;;;;;;;8.50;6.07;;;-1.70;87.10;;;;;;964221;148;28252;-83
2024/01/17 04:45:52;;;;;;;8.70;6.53;;;-1.70;87.10;;;;;;963945;145;27407;-83
2024/01/17 04:48:19;;;;;;;8.63;6.27;;;-1.70;87.30;;;;;;964501;148;27383;-83
2024/01/17 04:50:48;;;;;;;9.63;5.87;;;-1.70;87.40;;;;;;964448;147;27356;-82
2024/01/17 04:53:15;;;;;;;9.30;6.63;;;-1.70;87.60;;;;;;962808;148;27344;-83
2024/01/17 04:55:39;;;;;;;8.37;6.30;;;-1.60;87.70;;;;;;961123;148;27404;-83
2024/01/17 04:58:05;;;;;;;7.30;5.90;;;-1.60;87.90;;;;;;956719;148;27287;-83
2024/01/17 05:00:32;;;;;;;8.73;6.07;;;-1.60;87.90;;;;;;956728;149;27434;-83
2024/01/17 05:02:58;;;;;;;7.40;6.20;;;-1.50;88.20;;;;;;957157;149;27443;-82
2024/01/17 05:05:26;;;;;;;9.50;5.77;;;-1.50;88.40;;;;;;956243;149;27284;-82
2024/01/17 05:07:52;;;;;;;11.47;6.47;;;-1.40;88.40;;;;;;956598;149;27359;-83
2024/01/17 05:10:18;;;;;;;10.97;6.43;;;-1.40;88.30;;;;;;956907;149;27420;-82
2024/01/17 05:12:45;;;;;;;7.73;6.23;;;-1.30;88.70;;;;;;956655;148;27443;-83
2024/01/17 05:15:11;;;;;;;9.93;6.57;;;-1.20;88.70;;;;;;956624;148;27388;-80
2024/01/17 05:17:38;;;;;;;7.07;5.87;;;-1.20;88.50;;;;;;956310;149;27279;-81
2024/01/17 05:20:05;;;;;;;7.73;5.90;;;-1.10;88.40;;;;;;956942;147;27365;-81
2024/01/17 05:22:31;;;;;;;6.43;5.73;;;-1.10;88.30;;;;;;956780;149;27354;-81
2024/01/17 05:24:58;;;;;;;5.90;5.10;;;-1.00;88.30;;;;;;956702;149;27401;-80
2024/01/17 05:27:24;;;;;;;5.50;5.00;;;-1.00;88.30;;;;;;956447;148;27332;-81
2024/01/17 05:29:51;;;;;;;9.80;6.60;;;-0.90;88.20;;;;;;956942;148;27315;-81
2024/01/17 05:32:18;;;;;;;5.73;5.10;;;-0.90;88.20;;;;;;957058;149;27288;-82
2024/01/17 05:34:46;;;;;;;7.50;6.07;;;-0.80;88.20;;;;;;956781;149;27353;-80
2024/01/17 05:37:11;;;;;;;10.50;6.17;;;-0.80;87.40;;;;;;956668;149;27271;-81
2024/01/17 05:39:37;;;;;;;10.00;5.80;;;-0.80;88.00;;;;;;956990;148;27255;-81
2024/01/17 05:42:04;;;;;;;7.60;5.70;;;-0.70;87.80;;;;;;957035;149;27388;-81
2024/01/17 05:44:30;;;;;;;6.17;5.47;;;-0.70;88.00;;;;;;956651;149;27335;-81
2024/01/17 05:46:57;;;;;;;6.53;5.87;;;-0.60;88.00;;;;;;956828;149;28417;-81
2024/01/17 05:49:24;;;;;;;10.07;5.97;;;-0.60;87.80;;;;;;956674;148;27270;-81
2024/01/17 05:51:50;;;;;;;6.83;5.70;;;-0.50;87.90;;;;;;956310;149;27407;-81
2024/01/17 05:54:17;;;;;;;7.90;5.93;;;-0.50;87.80;;;;;;957195;148;27331;-81
2024/01/17 05:56:43;;;;;;;9.83;6.10;;;-0.40;87.70;;;;;;956837;149;27462;-81
2024/01/17 05:59:10;;;;;;;7.10;5.50;;;-0.40;87.80;;;;;;956748;149;27279;-81
2024/01/17 06:01:37;;;;;;;7.70;5.50;;;-0.30;87.70;;;;;;957262;148;27383;-81
2024/01/17 06:04:03;;;;;;;7.50;5.70;;;-0.30;87.70;;;;;;956874;148;27303;-82
2024/01/17 06:06:30;;;;;;;7.93;6.00;;;-0.20;87.60;;;;;;956854;149;27349;-81
2024/01/17 06:08:56;;;;;;;5.97;5.37;;;-0.20;87.50;;;;;;955720;148;27394;-80
2024/01/17 06:11:23;;;;;;;8.40;6.57;;;-0.10;87.40;;;;;;954075;149;27394;-81
2024/01/17 06:13:51;;;;;;;8.30;6.30;;;-0.10;87.20;;;;;;955065;149;27392;-81
2024/01/17 06:16:16;;;;;;;8.07;6.17;;;-0.10;87.00;;;;;;953488;149;27403;-82
2024/01/17 06:18:43;;;;;;;9.77;6.23;;;0.00;86.90;;;;;;954879;147;27355;-81
2024/01/17 06:21:09;;;;;;;8.33;6.03;;;0.00;86.90;;;;;;956073;147;27311;-81
2024/01/17 06:23:37;;;;;;;5.83;5.23;;;0.10;86.90;;;;;;956888;149;27252;-81
2024/01/17 06:26:03;;;;;;;9.90;6.47;;;0.10;86.80;;;;;;956890;149;27440;-82
2024/01/17 06:28:29;;;;;;;6.37;5.27;;;0.10;86.70;;;;;;956731;149;27438;-81
2024/01/17 06:30:57;;;;;;;7.10;6.03;;;0.10;86.60;;;;;;956890;149;27356;-81
2024/01/17 06:33:23;;;;;;;9.27;5.80;;;0.20;86.60;;;;;;956752;149;27338;-81
2024/01/17 06:35:50;;;;;;;8.23;6.47;;;0.20;86.50;;;;;;956521;149;27280;-82
2024/01/17 06:38:17;;;;;;;7.53;6.63;;;0.20;86.50;;;;;;956948;149;27670;-81
2024/01/17 06:40:43;;;;;;;8.87;6.63;;;0.20;86.40;;;;;;956953;149;27408;-81
2024/01/17 06:43:10;;;;;;;9.80;7.43;;;0.30;86.30;;;;;;957060;149;27448;-81
2024/01/17 06:45:36;;;;;;;8.33;6.30;;;0.30;86.20;;;;;;956911;149;27240;-81
2024/01/17 06:48:03;;;;;;;11.40;7.13;;;0.30;86.10;;;;;;956713;149;27292;-82
2024/01/17 06:50:29;;;;;;;10.70;7.37;;;0.30;86.20;;;;;;956808;148;27330;-81
2024/01/17 06:52:56;;;;;;;8.10;6.17;;;0.30;86.00;;;;;;956916;149;27462;-81
2024/01/17 06:55:23;;;;;;;8.17;6.50;;;0.30;86.00;;;;;;956864;149;27393;-82
2024/01/17 06:57:49;;;;;;;7.87;7.00;;;0.30;86.00;;;;;;956641;149;27330;-82
2024/01/17 07:00:16;;;;;;;7.37;6.57;;;0.40;86.00;;;;;;957080;149;27463;-81
2024/01/17 07:02:42;;;;;;;7.47;6.67;;;0.40;86.00;;;;;;956441;149;27440;-81
2024/01/17 07:05:09;;;;;;;9.70;6.90;;;0.40;86.00;;;;;;956945;148;27306;-82
2024/01/17 07:07:36;;;;;;;9.43;6.40;;;0.40;86.20;;;;;;956415;149;27365;-81
2024/01/17 07:10:03;;;;;;;10.80;7.13;;;0.40;86.20;;;;;;956586;149;27340;-82
2024/01/17 07:12:29;;;;;;;8.23;6.83;;;0.50;86.30;;;;;;956715;149;27525;-81
2024/01/17 07:14:55;;;;;;;11.30;7.30;;;0.50;86.30;;;;;;956572;149;27326;-81
2024/01/17 07:17:22;;;;;;;9.03;7.40;;;0.50;86.30;;;;;;956540;148;27286;-81
2024/01/17 07:19:49;;;;;;;9.73;7.40;;;0.60;86.50;;;;;;955696;147;27409;-81
2024/01/17 07:22:15;;;;;;;8.67;6.73;;;0.70;86.50;;;;;;956320;149;27385;-81
2024/01/17 07:24:42;;;;;;;9.57;8.17;;;0.70;86.40;;;;;;956739;149;27984;-86
2024/01/17 07:27:08;;;;;;;7.23;6.43;;;0.80;86.40;;;;;;956498;149;27331;-83
2024/01/17 07:29:35;;;;;;;12.60;7.20;;;0.80;86.20;;;;;;956962;148;27377;-80
2024/01/17 07:32:02;;;;;;;8.10;6.90;;;0.90;86.30;;;;;;957125;149;27792;-81
2024/01/17 07:34:28;;;;;;;9.10;6.80;;;0.90;86.20;;;;;;956886;149;27849;-80
2024/01/17 07:36:55;;;;;;;9.00;6.97;;;1.00;86.20;;;;;;956938;148;27257;-80
2024/01/17 07:39:21;;;;;;;11.97;6.93;;;1.00;86.10;;;;;;955931;149;27295;-80
2024/01/17 07:41:48;;;;;;;9.23;7.50;;;1.10;86.20;;;;;;956456;149;27321;-81
2024/01/17 07:44:14;;;;;;;9.70;7.30;;;1.10;86.00;;;;;;957027;148;27346;-80
2024/01/17 07:46:41;;;;;;;8.23;7.37;;;1.20;85.90;;;;;;956425;149;27627;-80
2024/01/17 07:49:08;;;;;;;9.20;6.93;;;1.20;85.70;;;;;;956480;148;27361;-84
2024/01/17 07:51:34;;;;;;;9.97;7.27;;;1.30;85.70;;;;;;957227;149;27403;-84
2024/01/17 07:54:01;;;;;;;10.47;7.30;;;1.30;85.60;;;;;;956646;148;27334;-85
2024/01/17 07:56:27;;;;;;;9.43;7.00;;;1.40;85.60;;;;;;957117;149;27447;-84
2024/01/17 07:58:54;;;;;;;8.73;6.90;;;1.40;85.50;;;;;;957483;148;27496;-85
2024/01/17 08:01:20;;;;;;;8.53;6.80;;;1.40;85.40;;;;;;957699;149;27287;-84
2024/01/17 08:03:47;;;;;;;9.53;7.63;;;1.50;85.40;;;;;;957758;149;27343;-81
2024/01/17 08:06:14;;;;;;;9.80;7.47;;;1.50;85.40;;;;;;957444;146;27411;-84
2024/01/17 08:08:40;;;;;;;8.50;7.60;;;1.60;85.30;;;;;;957227;149;27363;-84
2024/01/17 08:11:07;;;;;;;8.87;7.33;;;1.60;85.10;;;;;;958104;149;27619;-85
2024/01/17 08:13:34;;;;;;;8.87;6.67;;;1.70;85.10;;;;;;958088;148;27318;-82
2024/01/17 08:16:00;;;;;;;8.47;6.57;;;1.70;85.10;;;;;;957821;146;27435;-84
2024/01/17 08:18:27;;;;;;;8.13;6.97;;;1.80;85.10;;;;;;957861;149;27259;-84
2024/01/17 08:20:53;;;;;;;10.13;7.30;;;1.80;85.00;;;;;;957423;147;27306;-84
2024/01/17 08:23:20;;;;;;;10.33;7.43;;;1.90;84.90;;;;;;957925;149;27315;-84
2024/01/17 08:25:47;;;;;;;8.40;7.37;;;1.90;84.80;;;;;;958158;149;27347;-83
2024/01/17 08:28:13;;;;;;;9.40;7.03;;;2.00;84.70;;;;;;957778;149;27432;-85
2024/01/17 08:30:39;;;;;;;8.93;7.33;;;2.00;84.60;;;;;;957843;149;27271;-85
2024/01/17 08:33:06;;;;;;;8.20;6.93;;;2.10;84.60;;;;;;958407;148;27364;-83
2024/01/17 08:35:33;;;;;;;8.30;6.77;;;2.10;84.50;;;;;;958205;148;27440;-84
2024/01/17 08:38:00;;;;;;;9.60;7.33;;;2.20;84.40;;;;;;957859;149;27342;-86
2024/01/17 08:40:26;;;;;;;9.93;8.10;;;2.20;84.30;;;;;;957695;149;27604;-85
2024/01/17 08:42:53;;;;;;;9.90;7.33;;;2.30;84.40;;;;;;958132;149;27376;-85
2024/01/17 08:45:19;;;;;;;8.93;7.40;;;2.30;84.30;;;;;;957978;148;27330;-81
2024/01/17 08:47:46;;;;;;;9.30;7.57;;;2.40;84.30;;;;;;957652;148;27338;-85
2024/01/17 08:50:15;;;;;;;11.60;7.70;;;2.40;84.20;;;;;;958112;148;27359;-85
2024/01/17 08:52:42;;;;;;;12.77;7.97;;;2.50;84.20;;;;;;957737;149;27286;-85
2024/01/17 08:55:08;;;;;;;9.93;7.57;;;2.50;84.20;;;;;;957924;148;27279;-82
2024/01/17 08:57:37;;;;;;;9.77;7.23;;;2.60;84.10;;;;;;957457;146;27342;-83
2024/01/17 09:00:05;;;;;;;10.07;7.37;;;2.70;84.10;;;;;;956523;148;27834;-85
2024/01/17 09:02:30;;;;;;;8.90;7.53;;;2.70;84.00;;;;;;954506;149;27323;-85
2024/01/17 09:04:57;;;;;;;10.27;7.70;;;2.80;83.90;;;;;;956489;149;27331;-85
2024/01/17 09:07:24;;;;;;;10.33;7.93;;;2.80;83.80;;;;;;956956;149;27365;-85
2024/01/17 09:09:50;;;;;;;9.37;7.47;;;2.90;83.80;;;;;;956854;149;27359;-85
2024/01/17 09:12:20;;;;;;;10.63;7.83;;;3.00;83.60;;;;;;957204;149;27295;-85
2024/01/17 09:14:46;;;;;;;10.17;7.70;;;3.00;83.50;;;;;;956672;148;27361;-85
2024/01/17 09:17:13;;;;;;;12.90;8.60;;;3.00;83.30;;;;;;957019;149;27360;-84
2024/01/17 09:19:39;;;;;;;9.23;7.47;;;3.10;83.40;;;;;;956550;147;27243;-84
2024/01/17 09:22:07;;;;;;;8.70;7.80;;;3.10;83.30;;;;;;957013;149;27376;-84
2024/01/17 09:24:33;;;;;;;9.03;7.43;;;3.10;83.30;;;;;;956774;149;27335;-84
2024/01/17 09:26:59;;;;;;;11.83;8.37;;;3.20;83.50;;;;;;956960;149;27370;-85
2024/01/17 09:29:29;;;;;;;9.00;7.87;;;3.20;83.60;;;;;;956883;149;27745;-84
2024/01/17 09:31:53;;;;;;;9.97;8.17;;;3.20;83.70;;;;;;955486;149;27287;-84
2024/01/17 09:34:19;;;;;;;11.07;8.27;;;3.30;83.70;;;;;;956857;149;27318;-83
2024/01/17 09:36:46;;;;;;;9.17;8.17;;;3.30;83.80;;;;;;956302;148;27333;-84
2024/01/17 09:39:13;;;;;;;10.83;8.80;;;3.30;83.90;;;;;;956840;149;27425;-84
2024/01/17 09:41:39;;;;;;;8.90;8.00;;;3.30;84.20;;;;;;956666;149;27295;-87
2024/01/17 09:44:05;;;;;;;11.03;8.37;;;3.30;84.30;;;;;;956890;148;27423;-85
2024/01/17 09:46:32;;;;;;;13.47;9.00;;;3.40;84.60;;;;;;956890;149;27415;-84
2024/01/17 09:48:58;;;;;;;12.50;8.27;;;3.40;84.80;;;;;;956906;148;27337;-85
2024/01/17 09:51:25;;;;;;;13.00;9.40;;;3.40;85.00;;;;;;956454;149;27428;-86
2024/01/17 09:53:53;;;;;;;10.50;8.73;;;3.40;84.90;;;;;;956702;149;27323;-85
2024/01/17 09:56:18;;;;;;;9.90;8.33;;;3.50;84.90;;;;;;956838;148;27418;-81
2024/01/17 09:58:45;;;;;;;10.87;9.03;;;3.50;85.10;;;;;;957258;148;27346;-86
2024/01/17 10:01:14;;;;;;;10.27;8.67;;;3.50;85.30;;;;;;957440;147;27262;-86
2024/01/17 10:03:38;;;;;;;13.57;9.40;;;3.50;85.40;;;;;;957690;149;27295;-87
2024/01/17 10:06:05;;;;;;;10.00;8.87;;;3.40;85.10;;;;;;957327;149;27298;-83
2024/01/17 10:08:31;;;;;;;11.30;8.63;;;3.40;85.40;;;;;;958164;147;27394;-84
2024/01/17 10:10:58;;;;;;;10.33;9.23;;;3.40;85.80;;;;;;957793;149;27189;-86
2024/01/17 10:13:24;;;;;;;10.57;8.73;;;3.40;86.00;;;;;;957552;149;27303;-86
2024/01/17 10:15:51;;;;;;;12.73;9.10;;;3.40;86.20;;;;;;957733;147;27414;-85
2024/01/17 10:18:17;;;;;;;10.50;8.93;;;3.40;86.10;;;;;;958259;147;27465;-86
2024/01/17 10:33:42;;;;;;;13.43;10.93;;;3.40;86.40;;;;;;977191;143;41390;-81
2024/01/17 10:36:09;;;;;;;12.17;10.70;;;3.30;91.20;;;;;;956124;147;27366;-85
2024/01/17 10:38:35;;;;;;;12.43;9.77;;;3.40;90.70;;;;;;958391;149;27305;-83
2024/01/17 10:41:05;;;;;;;12.70;9.83;;;3.40;90.40;;;;;;956128;149;27359;-86
2024/01/17 10:43:31;;;;;;;10.63;9.53;;;3.40;90.10;;;;;;957664;148;27313;-87
2024/01/17 10:45:58;;;;;;;12.13;10.13;;;3.50;90.00;;;;;;956673;146;27354;-86
2024/01/17 10:48:24;;;;;;;12.10;9.33;;;3.50;90.10;;;;;;955458;146;27351;-83
2024/01/17 10:50:51;;;;;;;13.60;9.47;;;3.40;90.10;;;;;;955585;145;27384;-85
2024/01/17 10:53:18;;;;;;;11.33;9.23;;;3.50;90.10;;;;;;955272;145;27309;-87
2024/01/17 10:55:45;;;;;;;10.90;9.23;;;3.50;90.10;;;;;;954594;146;27253;-87
2024/01/17 10:58:11;;;;;;;11.00;9.60;;;3.50;90.20;;;;;;955198;146;27366;-85
2024/01/17 11:00:37;;;;;;;11.77;9.77;;;3.50;90.30;;;;;;955452;146;27398;-86
2024/01/17 11:03:08;;;;;;;12.77;9.57;;;3.50;90.60;;;;;;955753;146;28263;-87
2024/01/17 11:05:30;;;;;;;11.27;10.07;;;3.50;90.80;;;;;;955871;147;27250;-87
2024/01/17 11:07:57;;;;;;;10.77;9.20;;;3.50;90.90;;;;;;955697;146;27379;-84
2024/01/17 11:10:24;;;;;;;11.67;10.10;;;3.60;91.00;;;;;;973113;146;27339;-82
2024/01/17 11:12:50;;;;;;;12.50;10.10;;;3.60;91.10;;;;;;971204;146;27344;-87
2024/01/17 11:15:17;;;;;;;12.13;9.83;;;3.60;91.20;;;;;;973644;146;27250;-86
2024/01/17 11:17:45;;;;;;;13.23;9.80;;;3.60;91.30;;;;;;969835;146;27270;-86
2024/01/17 11:20:10;;;;;;;11.03;9.93;;;3.70;91.50;;;;;;971476;146;27285;-84
2024/01/17 11:22:37;;;;;;;11.57;9.40;;;3.70;91.50;;;;;;970389;146;27362;-81
2024/01/17 11:25:12;;;;;;;12.00;10.00;;;3.80;91.60;;;;;;972017;146;27286;-84
2024/01/17 11:27:41;;;;;;;13.37;9.77;;;3.80;91.70;;;;;;970984;146;27347;-86
2024/01/17 11:30:08;;;;;;;12.17;10.00;;;3.80;91.80;;;;;;952020;146;27306;-84
2024/01/17 11:32:53;;;;;;;16.60;10.63;;;3.90;92.10;;;;;;967976;146;27364;-85
2024/01/17 11:35:43;;;;;;;11.40;10.20;;;3.90;92.40;;;;;;968980;146;27384;-89
2024/01/17 11:38:25;;;;;;;11.53;10.13;;;4.00;92.40;;;;;;929457;150;27357;-86
2024/01/17 11:40:54;;;;;;;10.40;9.10;;;4.00;92.40;;;;;;962989;146;27273;-82
2024/01/17 11:43:20;;;;;;;10.63;9.53;;;4.10;92.60;;;;;;971360;146;28377;-86
2024/01/17 11:45:55;;;;;;;12.70;9.30;;;4.10;92.70;;;;;;968692;146;27586;-86
2024/01/17 11:48:25;;;;;;;11.27;9.90;;;4.20;92.80;;;;;;970492;146;27373;-83
2024/01/17 11:51:15;;;;;;;16.20;10.67;;;4.20;92.90;;;;;;969640;146;27312;-86
2024/01/17 11:53:39;;;;;;;12.10;8.87;;;4.20;92.70;;;;;;968744;146;27339;-86
2024/01/17 11:56:06;;;;;;;12.37;10.33;;;4.30;92.60;;;;;;969030;146;27360;-83
2024/01/17 11:58:44;;;;;;;14.20;10.30;;;4.30;92.70;;;;;;969125;146;27391;-82
2024/01/17 12:01:13;;;;;;;11.13;10.03;;;4.30;92.70;;;;;;968193;146;27320;-86
2024/01/17 12:03:37;;;;;;;12.60;10.40;;;4.30;92.80;;;;;;966849;146;27365;-82
2024/01/17 12:06:05;;;;;;;15.20;11.10;;;4.30;93.00;;;;;;970089;146;27298;-85
2024/01/17 12:08:31;;;;;;;13.30;10.63;;;4.40;93.00;;;;;;969509;146;27381;-80
2024/01/17 12:10:58;;;;;;;12.50;11.03;;;4.40;93.10;;;;;;969491;146;27325;-83
2024/01/17 12:13:24;;;;;;;13.40;11.07;;;4.40;93.00;;;;;;969137;146;27354;-80
2024/01/17 12:15:54;;;;;;;14.20;10.73;;;4.50;92.90;;;;;;970309;146;27258;-80
2024/01/17 12:18:20;;;;;;;15.43;10.90;;;4.50;92.90;;;;;;970027;146;27249;-80
2024/01/17 12:20:46;;;;;;;16.17;11.40;;;4.50;92.80;;;;;;972347;146;27654;-82
2024/01/17 12:23:13;;;;;;;14.87;11.73;;;4.50;92.80;;;;;;970728;146;27321;-80
2024/01/17 12:25:39;;;;;;;13.47;11.07;;;4.50;92.80;;;;;;971010;146;27296;-80
2024/01/17 12:28:07;;;;;;;13.00;11.13;;;4.50;93.00;;;;;;969876;146;27262;-81
2024/01/17 12:30:33;;;;;;;14.60;11.60;;;4.50;93.20;;;;;;972040;146;27350;-81
2024/01/17 12:32:59;;;;;;;15.53;11.87;;;4.60;93.30;;;;;;969122;146;27443;-81
2024/01/17 12:35:26;;;;;;;14.47;12.10;;;4.60;93.20;;;;;;959388;147;27668;-81
2024/01/17 12:37:52;;;;;;;15.97;11.90;;;4.60;93.20;;;;;;961147;147;27283;-81
2024/01/17 12:40:19;;;;;;;13.63;11.53;;;4.60;93.20;;;;;;961019;147;27320;-81
2024/01/17 12:42:49;;;;;;;14.17;11.97;;;4.60;93.50;;;;;;958284;146;27325;-81
2024/01/17 12:45:12;;;;;;;14.90;11.83;;;4.60;93.50;;;;;;958765;147;27291;-81
2024/01/17 12:47:39;;;;;;;13.90;11.83;;;4.60;93.70;;;;;;961171;147;27297;-81
2024/01/17 12:50:05;;;;;;;14.70;12.87;;;4.60;93.80;;;;;;958910;147;27318;-81
2024/01/17 12:52:32;;;;;;;13.17;11.73;;;4.60;93.90;;;;;;958638;146;27422;-80
2024/01/17 12:54:58;;;;;;;13.60;12.20;;;4.70;93.90;;;;;;959924;147;28354;-81
2024/01/17 12:57:25;;;;;;;13.73;12.30;;;4.70;94.00;;;;;;960390;147;27263;-80